Time;durP1;ratioP1;P1;durP2;ratioP2;P2;SDS_P1;SDS_P2;PMS_P1;PMS_P2;Temp;Humidity;BMP_temperature;BMP_pressure;BME280_temperature;BME280_humidity;BME280_pressure;Samples;Min_cycle;Max_cycle;Signal;HPM_P1;HPM_P2
2022/01/24 00:00:00;;;;;;;26.15;19.55;;;6.40;99.90;;;;;;5135817;27;20204;-58
2022/01/24 00:02:27;;;;;;;26.13;18.90;;;6.30;99.90;;;;;;5135305;27;20180;-58
2022/01/24 00:04:53;;;;;;;27.48;19.70;;;6.30;99.90;;;;;;5117490;27;20181;-58
2022/01/24 00:07:22;;;;;;;25.33;18.67;;;6.40;99.90;;;;;;5135527;27;20673;-58
2022/01/24 00:09:48;;;;;;;26.38;18.95;;;6.30;99.90;;;;;;5135240;27;20183;-59
2022/01/24 00:12:21;;;;;;;26.73;19.80;;;6.30;99.90;;;;;;5135510;27;20195;-58
2022/01/24 00:17:18;;;;;;;24.02;17.40;;;6.40;99.90;;;;;;5135198;27;20223;-58
2022/01/24 00:27:57;;;;;;;25.92;17.73;;;6.30;99.90;;;;;;5135342;27;20180;-58
2022/01/24 00:30:23;;;;;;;27.40;17.95;;;6.30;99.90;;;;;;5135511;27;20180;-59
2022/01/24 00:32:48;;;;;;;24.83;17.98;;;6.30;99.90;;;;;;5134600;27;20176;-58
2022/01/24 00:35:14;;;;;;;25.48;18.33;;;6.30;99.90;;;;;;5133898;27;20176;-58
2022/01/24 00:37:40;;;;;;;23.02;17.17;;;6.30;99.90;;;;;;5134694;27;20291;-58
2022/01/24 00:40:07;;;;;;;22.25;16.85;;;6.20;99.90;;;;;;5099453;27;20187;-58
2022/01/24 00:42:51;;;;;;;24.90;17.33;;;6.30;99.90;;;;;;5133617;27;20251;-58
2022/01/24 00:48:10;;;;;;;20.38;16.48;;;6.20;99.90;;;;;;5135294;27;20207;-58
2022/01/24 00:56:05;;;;;;;26.77;17.05;;;6.30;99.90;;;;;;5134874;27;20168;-58
2022/01/24 00:58:31;;;;;;;22.25;17.20;;;6.20;99.90;;;;;;5134650;27;20268;-58
2022/01/24 01:00:57;;;;;;;21.45;17.33;;;6.20;99.90;;;;;;5133328;27;20207;-58
2022/01/24 01:03:24;;;;;;;20.15;14.80;;;6.20;99.90;;;;;;5134414;27;20176;-58
2022/01/24 01:06:10;;;;;;;22.17;17.15;;;6.10;99.90;;;;;;5134617;27;20179;-58
2022/01/24 01:19:42;;;;;;;18.05;13.85;;;6.00;99.90;;;;;;5134519;27;20167;-58
2022/01/24 01:22:07;;;;;;;18.65;14.35;;;6.10;99.90;;;;;;5134413;27;20184;-58
2022/01/24 01:24:38;;;;;;;19.65;14.65;;;6.00;99.90;;;;;;5134299;27;20606;-58
2022/01/24 01:27:11;;;;;;;22.42;14.95;;;6.00;99.90;;;;;;5134762;28;20202;-58
2022/01/24 01:32:33;;;;;;;20.17;14.48;;;5.90;99.90;;;;;;5133379;28;20163;-58
2022/01/24 01:55:48;;;;;;;18.90;13.57;;;5.90;99.90;;;;;;5138241;27;20176;-58
2022/01/24 01:58:16;;;;;;;17.63;13.18;;;5.90;99.90;;;;;;5136913;27;20542;-58
2022/01/24 02:00:50;;;;;;;20.83;14.25;;;5.80;99.90;;;;;;5138095;27;20261;-58
2022/01/24 02:03:17;;;;;;;16.63;12.98;;;5.80;99.90;;;;;;5137085;27;20165;-58
2022/01/24 02:05:43;;;;;;;21.02;14.43;;;5.80;99.90;;;;;;5137972;27;20646;-58
2022/01/24 02:08:08;;;;;;;17.80;13.68;;;5.70;99.90;;;;;;5137337;27;20171;-59
2022/01/24 02:10:36;;;;;;;17.35;13.98;;;5.70;99.90;;;;;;5140552;27;20289;-58
2022/01/24 02:13:03;;;;;;;17.42;13.48;;;5.70;99.90;;;;;;5138435;27;20696;-58
2022/01/24 02:15:42;;;;;;;18.40;12.60;;;5.80;99.90;;;;;;5137891;27;20168;-58
2022/01/24 02:18:25;;;;;;;16.55;13.20;;;5.70;99.90;;;;;;5137971;27;20691;-58
2022/01/24 02:25:54;;;;;;;17.40;13.05;;;5.70;99.90;;;;;;5137765;27;20183;-58
2022/01/24 02:28:22;;;;;;;17.92;13.25;;;5.80;99.90;;;;;;5137592;27;20620;-58
2022/01/24 02:31:18;;;;;;;18.73;14.43;;;5.80;99.90;;;;;;5137504;27;20181;-58
2022/01/24 02:33:45;;;;;;;18.50;13.40;;;5.80;99.90;;;;;;5137120;27;20177;-59
2022/01/24 02:36:11;;;;;;;17.13;13.32;;;5.80;99.90;;;;;;5137372;27;20168;-58
2022/01/24 02:39:06;;;;;;;19.63;13.45;;;5.80;99.90;;;;;;5137399;27;20552;-58
2022/01/24 02:49:28;;;;;;;19.13;13.45;;;5.60;99.90;;;;;;5137167;27;20621;-58
2022/01/24 02:52:02;;;;;;;16.88;12.85;;;5.60;99.90;;;;;;5137109;27;20184;-58
2022/01/24 02:54:30;;;;;;;16.77;13.45;;;5.70;99.90;;;;;;5136301;27;20151;-58
2022/01/24 02:56:56;;;;;;;17.67;13.50;;;5.60;99.90;;;;;;5137198;27;20199;-58
2022/01/24 02:59:22;;;;;;;17.23;13.10;;;5.50;99.90;;;;;;5137000;27;20633;-58
2022/01/24 03:01:48;;;;;;;18.63;13.98;;;5.50;99.90;;;;;;5135624;27;20270;-58
2022/01/24 03:04:14;;;;;;;17.85;13.68;;;5.60;99.90;;;;;;5136868;27;20260;-58
2022/01/24 03:06:40;;;;;;;18.08;14.40;;;5.70;99.90;;;;;;5136966;27;20545;-58
2022/01/24 03:09:07;;;;;;;16.33;14.27;;;5.60;99.90;;;;;;5135357;27;20263;-58
2022/01/24 03:14:14;;;;;;;20.10;14.07;;;5.60;99.90;;;;;;5136742;27;20220;-58
2022/01/24 03:16:40;;;;;;;18.75;14.57;;;5.40;99.90;;;;;;5136461;27;20575;-58
2022/01/24 03:19:06;;;;;;;17.90;13.70;;;5.40;99.90;;;;;;5136465;27;20239;-58
2022/01/24 03:21:32;;;;;;;19.40;14.52;;;5.30;99.90;;;;;;5136582;27;20172;-58
2022/01/24 03:23:57;;;;;;;18.33;13.95;;;5.40;99.90;;;;;;5136504;27;20502;-58
2022/01/24 03:26:23;;;;;;;20.27;13.45;;;5.40;99.90;;;;;;5136425;27;20189;-58
2022/01/24 03:28:49;;;;;;;17.17;13.20;;;5.40;99.90;;;;;;5136481;27;20207;-58
2022/01/24 03:31:15;;;;;;;18.50;14.48;;;5.30;99.90;;;;;;5136077;27;20219;-58
2022/01/24 03:33:40;;;;;;;19.85;14.55;;;5.40;99.90;;;;;;5134904;27;20199;-58
2022/01/24 03:36:06;;;;;;;20.17;15.13;;;5.40;99.90;;;;;;5136215;27;20180;-58
2022/01/24 03:38:32;;;;;;;20.40;15.15;;;5.40;99.90;;;;;;5135092;27;20209;-58
2022/01/24 03:40:57;;;;;;;18.55;13.80;;;5.40;99.90;;;;;;5136010;27;20205;-58
2022/01/24 03:43:24;;;;;;;20.75;15.18;;;5.30;99.90;;;;;;5135766;27;20230;-58
2022/01/24 03:46:11;;;;;;;20.38;15.50;;;5.40;99.90;;;;;;5135904;27;20540;-58
2022/01/24 03:48:44;;;;;;;21.55;16.05;;;5.40;99.90;;;;;;5134597;27;20218;-59
2022/01/24 03:51:11;;;;;;;19.98;15.07;;;5.40;99.90;;;;;;5136030;27;20251;-59
2022/01/24 03:53:37;;;;;;;20.92;15.20;;;5.40;99.90;;;;;;5134632;27;20191;-58
2022/01/24 03:56:04;;;;;;;21.88;14.82;;;5.30;99.90;;;;;;5135675;27;20587;-58
2022/01/24 03:58:30;;;;;;;22.90;16.92;;;5.30;99.90;;;;;;5137886;27;20296;-59
2022/01/24 04:00:57;;;;;;;22.60;15.20;;;5.40;99.90;;;;;;5139735;27;20177;-60
2022/01/24 04:03:23;;;;;;;22.48;15.35;;;5.40;99.90;;;;;;5135436;27;20636;-58
2022/01/24 04:05:49;;;;;;;24.20;15.77;;;5.30;99.90;;;;;;5134130;27;20172;-58
2022/01/24 04:08:15;;;;;;;21.73;15.93;;;5.30;99.90;;;;;;5134899;27;20182;-58
2022/01/24 04:10:43;;;;;;;20.77;15.73;;;5.30;99.90;;;;;;5135273;27;20687;-58
2022/01/24 04:13:34;;;;;;;21.27;15.75;;;5.40;99.90;;;;;;5135633;27;20165;-58
2022/01/24 04:16:23;;;;;;;19.45;15.45;;;5.20;99.90;;;;;;5134821;27;20194;-57
2022/01/24 04:21:21;;;;;;;20.35;15.40;;;5.30;99.90;;;;;;5135125;27;20187;-58
2022/01/24 04:23:58;;;;;;;21.90;16.88;;;5.30;99.90;;;;;;5135384;27;20179;-58
2022/01/24 04:26:24;;;;;;;20.98;14.68;;;5.30;99.90;;;;;;5135296;27;20151;-58
2022/01/24 04:28:50;;;;;;;20.35;15.30;;;5.30;99.90;;;;;;5116992;27;20633;-58
2022/01/24 04:31:16;;;;;;;21.88;15.48;;;5.30;99.90;;;;;;5135214;27;20178;-58
2022/01/24 04:33:42;;;;;;;21.05;15.60;;;5.30;99.90;;;;;;5133709;27;20624;-58
2022/01/24 04:36:08;;;;;;;20.25;14.82;;;5.20;99.90;;;;;;5133963;27;20222;-58
2022/01/24 04:38:34;;;;;;;19.67;15.15;;;5.30;99.90;;;;;;5134918;27;20208;-58
2022/01/24 04:41:04;;;;;;;23.02;16.92;;;5.30;99.90;;;;;;5135084;27;20284;-58
2022/01/24 04:51:37;;;;;;;20.58;14.07;;;5.20;99.90;;;;;;5134959;27;20524;-58
2022/01/24 04:54:37;;;;;;;21.98;15.65;;;5.20;99.90;;;;;;5134361;27;20181;-58
2022/01/24 04:56:54;;;;;;;21.23;15.48;;;5.20;99.90;;;;;;5134555;27;20194;-58
2022/01/24 04:59:20;;;;;;;21.48;14.98;;;5.20;99.90;;;;;;5134767;27;20267;-58
2022/01/24 05:01:46;;;;;;;19.60;15.18;;;5.10;99.90;;;;;;5134752;27;20203;-58
2022/01/24 05:04:12;;;;;;;21.85;15.52;;;5.20;99.90;;;;;;5134633;27;20229;-58
2022/01/24 05:06:38;;;;;;;20.77;14.43;;;5.10;99.90;;;;;;5134645;27;20174;-58
2022/01/24 05:09:05;;;;;;;21.17;15.65;;;5.10;99.90;;;;;;5133718;27;20187;-58
2022/01/24 05:11:48;;;;;;;20.27;14.32;;;5.20;99.90;;;;;;5134514;27;20206;-58
2022/01/24 05:25:11;;;;;;;19.88;14.05;;;5.00;99.90;;;;;;5134236;28;20273;-58
2022/01/24 05:27:36;;;;;;;19.10;14.40;;;5.00;99.90;;;;;;5134335;28;20192;-58
2022/01/24 05:30:03;;;;;;;20.35;14.65;;;4.90;99.90;;;;;;5115971;28;20179;-58
2022/01/24 05:32:29;;;;;;;19.58;14.35;;;4.80;99.90;;;;;;5134372;27;20176;-58
2022/01/24 05:34:54;;;;;;;19.25;14.43;;;4.80;99.90;;;;;;5133994;28;20175;-58
2022/01/24 05:37:20;;;;;;;24.50;17.75;;;4.90;99.90;;;;;;5134247;28;20244;-58
2022/01/24 05:39:46;;;;;;;21.38;15.63;;;4.90;99.90;;;;;;5115942;28;20228;-58
2022/01/24 05:42:11;;;;;;;19.30;14.77;;;4.90;99.90;;;;;;5134360;28;20510;-58
2022/01/24 05:44:37;;;;;;;17.67;14.23;;;4.80;99.90;;;;;;5134224;28;20644;-59
2022/01/24 05:47:03;;;;;;;20.67;14.75;;;4.80;99.90;;;;;;5134888;28;20186;-58
2022/01/24 05:49:28;;;;;;;23.67;16.00;;;4.90;99.90;;;;;;5135216;27;20207;-58
2022/01/24 05:51:54;;;;;;;23.55;16.83;;;4.90;99.90;;;;;;5133095;28;20176;-58
2022/01/24 05:54:20;;;;;;;25.85;19.73;;;4.90;99.90;;;;;;5133891;28;20532;-59
2022/01/24 05:56:46;;;;;;;28.23;21.92;;;4.90;99.90;;;;;;5133008;28;20217;-57
2022/01/24 05:59:12;;;;;;;27.42;20.50;;;4.90;99.90;;;;;;5134114;28;20518;-59
2022/01/24 06:01:37;;;;;;;29.45;21.92;;;4.90;99.90;;;;;;5132916;28;20208;-59
2022/01/24 06:04:04;;;;;;;28.88;22.80;;;4.90;99.90;;;;;;5134049;28;20222;-56
2022/01/24 06:06:29;;;;;;;23.38;18.30;;;4.90;99.90;;;;;;5133890;27;20582;-57
2022/01/24 06:08:55;;;;;;;22.70;16.60;;;4.90;99.90;;;;;;5133220;28;20259;-58
2022/01/24 06:11:23;;;;;;;27.40;16.92;;;4.90;99.90;;;;;;5131690;28;20184;-58
2022/01/24 06:13:51;;;;;;;22.23;17.63;;;4.80;99.90;;;;;;5134020;27;20259;-57
2022/01/24 06:16:17;;;;;;;22.98;16.83;;;4.80;99.90;;;;;;5132423;28;20230;-57
2022/01/24 06:18:43;;;;;;;47.28;30.30;;;4.80;99.90;;;;;;5112265;27;20208;-58
2022/01/24 06:21:09;;;;;;;143.32;85.85;;;4.70;99.90;;;;;;5110968;28;20177;-57
2022/01/24 06:23:34;;;;;;;73.43;44.38;;;4.60;99.90;;;;;;5113211;28;20549;-57
2022/01/24 06:26:00;;;;;;;49.42;30.65;;;4.60;99.90;;;;;;5113001;28;20179;-57
2022/01/24 06:28:26;;;;;;;42.83;26.27;;;4.60;99.90;;;;;;5095228;28;20233;-58
2022/01/24 06:30:53;;;;;;;40.28;24.35;;;4.60;99.90;;;;;;5097159;28;20176;-57
2022/01/24 06:33:19;;;;;;;50.17;32.08;;;4.50;99.90;;;;;;5116925;28;20177;-57
2022/01/24 06:35:44;;;;;;;37.95;24.73;;;4.40;99.90;;;;;;5116687;28;20180;-57
2022/01/24 06:38:10;;;;;;;56.42;38.53;;;4.40;99.90;;;;;;5116293;28;20240;-57
2022/01/24 06:40:36;;;;;;;57.65;38.53;;;4.30;99.90;;;;;;5115352;28;20276;-57
2022/01/24 06:43:02;;;;;;;57.88;42.15;;;4.20;99.90;;;;;;5098477;28;20227;-57
2022/01/24 06:45:28;;;;;;;69.10;44.67;;;4.20;99.90;;;;;;5116618;28;20196;-57
2022/01/24 06:47:53;;;;;;;64.57;40.25;;;4.20;99.90;;;;;;5115272;28;20183;-56
2022/01/24 06:50:19;;;;;;;33.15;23.75;;;4.20;99.90;;;;;;5115588;28;20683;-55
2022/01/24 06:52:47;;;;;;;31.10;21.00;;;4.20;99.90;;;;;;5116545;28;20521;-56
2022/01/24 06:55:13;;;;;;;27.33;18.15;;;4.20;99.90;;;;;;5115652;28;20168;-56
2022/01/24 06:57:39;;;;;;;26.17;18.08;;;4.10;99.90;;;;;;5115183;28;20226;-56
2022/01/24 07:00:05;;;;;;;26.85;17.33;;;4.10;99.90;;;;;;5115148;28;20220;-57
2022/01/24 07:02:31;;;;;;;29.87;20.00;;;4.00;99.90;;;;;;5115190;28;20169;-57
2022/01/24 07:04:57;;;;;;;26.88;17.70;;;4.00;99.90;;;;;;5116293;28;20264;-56
2022/01/24 07:07:22;;;;;;;23.70;16.42;;;4.00;99.90;;;;;;5116062;28;20185;-56
2022/01/24 07:09:48;;;;;;;26.00;17.23;;;4.00;99.90;;;;;;5114628;28;20184;-57
2022/01/24 07:12:14;;;;;;;24.95;16.58;;;4.00;99.90;;;;;;5116099;28;20177;-57
2022/01/24 07:14:41;;;;;;;33.38;16.85;;;3.90;99.90;;;;;;5116137;28;20240;-57
2022/01/24 07:17:17;;;;;;;25.65;16.13;;;3.90;99.90;;;;;;5114770;28;20207;-55
2022/01/24 07:19:43;;;;;;;28.60;19.10;;;3.90;99.90;;;;;;5115710;28;20192;-56
2022/01/24 07:22:09;;;;;;;30.85;20.20;;;3.90;99.90;;;;;;5115972;28;20183;-56
2022/01/24 07:24:35;;;;;;;28.08;18.92;;;3.90;99.90;;;;;;5115900;28;20556;-56
2022/01/24 07:27:02;;;;;;;26.30;17.25;;;3.90;99.90;;;;;;5115943;28;20201;-56
2022/01/24 07:29:29;;;;;;;26.10;16.25;;;3.80;99.90;;;;;;5115997;28;20662;-57
2022/01/24 07:31:54;;;;;;;26.30;16.90;;;3.70;99.90;;;;;;5114633;28;20172;-57
2022/01/24 07:34:20;;;;;;;28.67;17.13;;;3.70;99.90;;;;;;5114597;28;20637;-55
2022/01/24 07:36:46;;;;;;;31.08;16.55;;;3.70;99.90;;;;;;5115654;28;20180;-57
2022/01/24 07:39:12;;;;;;;26.75;16.15;;;3.70;99.90;;;;;;5100232;28;20200;-57
2022/01/24 07:41:44;;;;;;;25.13;15.95;;;3.60;99.90;;;;;;5115344;28;20214;-55
2022/01/24 07:44:10;;;;;;;26.27;16.83;;;3.70;99.90;;;;;;5115842;28;20169;-57
2022/01/24 07:46:36;;;;;;;27.02;17.02;;;3.70;99.90;;;;;;5115374;28;20587;-56
2022/01/24 07:49:06;;;;;;;26.70;16.48;;;3.70;99.90;;;;;;5114625;28;20202;-57
2022/01/24 07:51:32;;;;;;;25.73;16.13;;;3.70;99.90;;;;;;5115148;28;20660;-57
2022/01/24 07:53:57;;;;;;;25.08;16.50;;;3.70;99.90;;;;;;5114318;28;20177;-56
2022/01/24 07:56:23;;;;;;;26.38;17.20;;;3.80;99.90;;;;;;5114093;28;20514;-56
2022/01/24 07:58:49;;;;;;;27.10;17.63;;;3.80;99.90;;;;;;5113747;28;20203;-55
2022/01/24 08:01:15;;;;;;;27.03;18.63;;;3.90;99.90;;;;;;5114073;28;20192;-55
2022/01/24 08:03:42;;;;;;;32.17;18.80;;;3.90;99.90;;;;;;5115086;28;20180;-55
2022/01/24 08:06:08;;;;;;;28.87;18.57;;;3.90;99.90;;;;;;5115103;28;20184;-57
2022/01/24 08:08:34;;;;;;;29.88;17.55;;;4.00;99.90;;;;;;5115015;28;20216;-56
2022/01/24 08:11:00;;;;;;;25.15;17.60;;;4.10;99.90;;;;;;5113568;28;20211;-55
2022/01/24 08:13:25;;;;;;;27.03;17.53;;;4.00;99.90;;;;;;5115028;28;20181;-56
2022/01/24 08:15:51;;;;;;;30.93;18.83;;;4.10;99.90;;;;;;5113683;28;20179;-56
2022/01/24 08:18:17;;;;;;;25.55;16.90;;;4.10;99.90;;;;;;5113772;28;20264;-55
2022/01/24 08:20:42;;;;;;;29.23;17.60;;;4.10;99.90;;;;;;5114829;28;20185;-56
2022/01/24 08:23:10;;;;;;;24.77;17.23;;;4.10;99.90;;;;;;5114810;28;20172;-55
2022/01/24 08:25:35;;;;;;;25.70;16.70;;;4.20;99.90;;;;;;5096737;28;20255;-56
2022/01/24 08:28:01;;;;;;;27.77;17.50;;;4.20;99.90;;;;;;5114604;28;20261;-57
2022/01/24 08:30:28;;;;;;;25.85;17.27;;;4.20;99.90;;;;;;5114498;28;20623;-57
2022/01/24 08:32:53;;;;;;;24.87;16.63;;;4.30;99.90;;;;;;5113268;28;20689;-57
2022/01/24 08:35:20;;;;;;;24.80;16.77;;;4.30;99.90;;;;;;5114632;28;20180;-57
2022/01/24 08:37:46;;;;;;;24.45;16.33;;;4.30;99.90;;;;;;5114628;28;20196;-55
2022/01/24 08:40:22;;;;;;;27.02;17.30;;;4.30;99.90;;;;;;5113266;28;20199;-55
2022/01/24 08:48:05;;;;;;;26.15;16.92;;;4.10;99.90;;;;;;5114437;28;20180;-56
2022/01/24 08:50:31;;;;;;;27.83;17.10;;;4.10;99.90;;;;;;5113096;28;20176;-57
2022/01/24 08:52:59;;;;;;;28.40;17.42;;;4.10;99.90;;;;;;5113519;28;20203;-55
2022/01/24 08:55:27;;;;;;;28.02;17.75;;;4.10;99.90;;;;;;5113123;28;20200;-56
2022/01/24 08:57:54;;;;;;;28.38;16.85;;;4.10;99.90;;;;;;5113001;28;20200;-56
2022/01/24 09:00:20;;;;;;;26.17;16.25;;;4.10;99.90;;;;;;5113005;28;20626;-56
2022/01/24 09:02:45;;;;;;;26.75;16.95;;;4.10;99.90;;;;;;5114144;28;20177;-55
2022/01/24 09:05:11;;;;;;;25.20;15.88;;;4.20;99.90;;;;;;5113747;28;20173;-57
2022/01/24 09:07:37;;;;;;;26.95;15.27;;;4.20;99.90;;;;;;5114027;28;20550;-56
2022/01/24 09:10:05;;;;;;;23.70;15.13;;;4.30;99.90;;;;;;5095983;28;20183;-57
2022/01/24 09:12:31;;;;;;;26.25;17.05;;;4.30;99.90;;;;;;5112825;28;20262;-57
2022/01/24 09:14:56;;;;;;;24.45;15.98;;;4.30;99.90;;;;;;5113687;28;20263;-57
2022/01/24 09:17:22;;;;;;;26.02;16.33;;;4.50;99.90;;;;;;5113887;28;20240;-57
2022/01/24 09:19:48;;;;;;;24.63;16.67;;;4.50;99.90;;;;;;5116201;28;20206;-56
2022/01/24 09:22:14;;;;;;;25.58;16.77;;;4.60;99.90;;;;;;5116386;28;20187;-55
2022/01/24 09:24:39;;;;;;;26.75;16.17;;;4.80;99.90;;;;;;5116746;28;20253;-55
2022/01/24 09:27:05;;;;;;;24.75;16.13;;;4.90;99.90;;;;;;5115236;28;20172;-55
2022/01/24 09:29:32;;;;;;;24.92;15.98;;;5.10;99.90;;;;;;5113898;28;20267;-56
2022/01/24 09:31:58;;;;;;;26.40;17.13;;;5.30;99.90;;;;;;5113876;28;20168;-56
2022/01/24 09:34:24;;;;;;;27.48;17.20;;;5.40;99.90;;;;;;5114047;28;20177;-57
2022/01/24 09:36:50;;;;;;;25.25;17.27;;;5.60;99.90;;;;;;5112593;28;20181;-57
2022/01/24 09:39:17;;;;;;;25.42;17.98;;;5.60;99.90;;;;;;5112530;28;20196;-57
2022/01/24 09:41:44;;;;;;;27.63;17.05;;;5.70;99.90;;;;;;5112549;28;20273;-56
2022/01/24 09:44:10;;;;;;;24.55;17.80;;;5.90;99.90;;;;;;5112176;28;20173;-57
2022/01/24 09:46:37;;;;;;;24.75;17.55;;;5.90;99.90;;;;;;5113496;28;20186;-57
2022/01/24 09:49:04;;;;;;;24.52;17.13;;;5.90;99.90;;;;;;5113668;28;20185;-57
2022/01/24 09:51:31;;;;;;;23.67;16.65;;;5.90;99.90;;;;;;5113673;28;20610;-57
2022/01/24 09:53:58;;;;;;;23.00;16.95;;;5.90;99.90;;;;;;5113551;28;20525;-57
2022/01/24 09:56:24;;;;;;;21.63;16.92;;;6.00;99.90;;;;;;5113781;28;20191;-57
2022/01/24 09:58:50;;;;;;;22.23;16.10;;;6.00;99.90;;;;;;5113506;28;20242;-57
2022/01/24 10:01:18;;;;;;;22.85;17.20;;;6.10;99.90;;;;;;5113624;28;20627;-57
2022/01/24 10:04:08;;;;;;;22.13;15.90;;;6.20;99.90;;;;;;5113773;28;20263;-57
2022/01/24 10:06:59;;;;;;;22.00;16.33;;;6.30;99.90;;;;;;5115446;28;20194;-57
2022/01/24 10:09:45;;;;;;;22.67;17.50;;;6.40;99.90;;;;;;5117369;28;20261;-57
2022/01/24 10:12:19;;;;;;;22.30;16.38;;;6.60;99.90;;;;;;5117429;28;20157;-57
2022/01/24 10:17:33;;;;;;;22.10;17.05;;;6.60;99.90;;;;;;5116548;28;20281;-58
2022/01/24 10:20:17;;;;;;;20.48;17.35;;;6.70;99.90;;;;;;5117279;28;20180;-57
2022/01/24 10:22:42;;;;;;;23.77;17.85;;;6.60;99.90;;;;;;5116013;28;20168;-57
2022/01/24 10:25:11;;;;;;;20.52;16.58;;;6.70;99.90;;;;;;5117122;28;20184;-56
2022/01/24 10:27:41;;;;;;;20.70;17.63;;;6.60;99.90;;;;;;5117028;28;20183;-56
2022/01/24 10:30:10;;;;;;;22.08;17.33;;;6.60;99.90;;;;;;5116744;27;20226;-56
2022/01/24 10:32:47;;;;;;;21.65;17.23;;;6.60;99.90;;;;;;5116984;28;20168;-57
2022/01/24 10:35:38;;;;;;;22.35;17.33;;;6.60;99.90;;;;;;5115716;28;20180;-55
2022/01/24 10:43:44;;;;;;;17.27;12.25;;;6.80;99.90;;;;;;5116801;28;20158;-57
2022/01/24 10:46:10;;;;;;;23.08;15.85;;;6.80;99.90;;;;;;5115354;28;20187;-56
2022/01/24 10:48:42;;;;;;;20.45;15.35;;;6.90;99.90;;;;;;5116404;28;20657;-56
2022/01/24 10:51:10;;;;;;;21.02;15.63;;;6.60;99.90;;;;;;5116589;28;20175;-56
2022/01/24 10:53:39;;;;;;;20.17;15.63;;;6.50;99.90;;;;;;5116865;28;20209;-56
2022/01/24 10:56:35;;;;;;;19.88;15.85;;;6.30;99.90;;;;;;5116487;28;20168;-55
2022/01/24 10:59:21;;;;;;;22.27;15.43;;;6.20;99.90;;;;;;5116490;28;20208;-57
2022/01/24 11:01:52;;;;;;;19.27;15.07;;;6.10;99.90;;;;;;5116523;28;20157;-55
2022/01/24 11:04:19;;;;;;;27.23;17.92;;;6.00;99.90;;;;;;5115066;28;20264;-59
2022/01/24 11:06:50;;;;;;;23.92;16.80;;;6.10;99.90;;;;;;5116344;28;20176;-56
2022/01/24 11:09:24;;;;;;;22.77;16.85;;;6.00;99.90;;;;;;5116379;27;20621;-57
2022/01/24 11:11:56;;;;;;;20.55;14.98;;;6.00;99.90;;;;;;5116518;28;20215;-56
2022/01/24 11:14:24;;;;;;;19.88;15.82;;;5.90;99.90;;;;;;5117577;28;20169;-57
2022/01/24 11:16:51;;;;;;;22.73;17.05;;;6.00;99.90;;;;;;5115235;28;20705;-55
2022/01/24 11:19:42;;;;;;;23.00;17.35;;;6.10;99.90;;;;;;5114822;28;20204;-55
2022/01/24 11:22:19;;;;;;;22.15;17.75;;;6.10;99.90;;;;;;5116116;28;20165;-55
2022/01/24 11:24:57;;;;;;;23.63;17.77;;;6.20;99.90;;;;;;5114821;28;20554;-55
2022/01/24 11:27:23;;;;;;;24.92;18.35;;;6.20;99.90;;;;;;5116026;28;20169;-55
2022/01/24 11:29:52;;;;;;;23.15;17.63;;;6.20;99.90;;;;;;5097815;28;20179;-54
2022/01/24 11:32:19;;;;;;;23.38;18.35;;;6.20;99.90;;;;;;5115852;28;20161;-57
2022/01/24 11:34:49;;;;;;;22.10;18.17;;;6.10;99.90;;;;;;5115716;28;20172;-56
2022/01/24 11:37:34;;;;;;;23.23;17.25;;;6.20;99.90;;;;;;5115712;28;20160;-56
2022/01/24 11:40:01;;;;;;;27.05;17.92;;;6.30;99.90;;;;;;5114410;28;20526;-57
2022/01/24 11:42:32;;;;;;;25.77;18.83;;;6.40;99.90;;;;;;5115282;28;20255;-56
2022/01/24 11:45:04;;;;;;;25.83;18.83;;;6.50;99.90;;;;;;5115552;28;20311;-54
2022/01/24 11:47:31;;;;;;;25.88;18.95;;;6.60;99.90;;;;;;5114230;28;20273;-56
2022/01/24 11:49:57;;;;;;;24.45;18.92;;;6.60;99.90;;;;;;5114362;28;20211;-55
2022/01/24 11:52:32;;;;;;;23.55;19.23;;;6.70;99.90;;;;;;5115556;28;20176;-56
2022/01/24 11:55:21;;;;;;;23.63;19.25;;;6.90;99.90;;;;;;5114144;28;20625;-55
2022/01/24 11:57:50;;;;;;;25.10;18.55;;;7.00;99.90;;;;;;5114156;28;20200;-56
2022/01/24 12:00:27;;;;;;;25.92;19.63;;;7.00;99.90;;;;;;5113932;28;20610;-55
2022/01/24 12:02:57;;;;;;;22.10;19.70;;;6.70;99.90;;;;;;5115252;28;20169;-57
2022/01/24 12:05:25;;;;;;;30.95;22.75;;;6.60;99.90;;;;;;5115197;28;20196;-55
2022/01/24 12:07:52;;;;;;;24.23;20.33;;;6.60;99.90;;;;;;5115172;28;20180;-54
2022/01/24 12:10:22;;;;;;;22.63;17.63;;;6.40;99.90;;;;;;5115051;28;20180;-55
2022/01/24 12:12:50;;;;;;;24.77;19.15;;;6.40;99.90;;;;;;5114656;28;20702;-55
2022/01/24 12:15:38;;;;;;;22.52;16.92;;;6.30;99.90;;;;;;5114958;28;20209;-56
2022/01/24 12:18:05;;;;;;;28.50;22.77;;;6.40;99.90;;;;;;5115102;28;20341;-55
2022/01/24 12:20:31;;;;;;;25.17;19.55;;;6.40;99.90;;;;;;5114853;28;20173;-55
2022/01/24 12:23:19;;;;;;;24.63;17.90;;;6.40;99.90;;;;;;5114674;28;20175;-56
2022/01/24 12:25:50;;;;;;;24.33;17.88;;;6.40;99.90;;;;;;5114751;28;20174;-54
2022/01/24 12:28:23;;;;;;;23.83;18.25;;;6.40;99.90;;;;;;5112702;28;20530;-56
2022/01/24 12:31:00;;;;;;;26.65;18.63;;;6.40;99.90;;;;;;5114949;28;20492;-55
2022/01/24 12:33:34;;;;;;;21.67;17.25;;;6.50;99.90;;;;;;5114601;28;20220;-55
2022/01/24 12:36:06;;;;;;;26.00;18.98;;;6.40;99.90;;;;;;5114668;28;20175;-55
2022/01/24 12:38:47;;;;;;;22.65;18.10;;;6.60;99.90;;;;;;5113232;28;20207;-57
2022/01/24 12:41:31;;;;;;;25.27;18.35;;;6.50;99.90;;;;;;5114425;28;20180;-55
2022/01/24 12:46:30;;;;;;;25.58;20.27;;;6.90;99.90;;;;;;5113741;28;20181;-55
2022/01/24 12:48:58;;;;;;;25.30;19.17;;;7.00;99.90;;;;;;5114157;28;20180;-55
2022/01/24 12:51:27;;;;;;;25.48;19.27;;;7.00;99.90;;;;;;5114214;28;20259;-57
2022/01/24 12:53:53;;;;;;;28.02;20.92;;;6.90;99.90;;;;;;5113930;28;20576;-55
2022/01/24 12:56:27;;;;;;;26.40;20.35;;;7.00;99.90;;;;;;5114264;28;20233;-56
2022/01/24 12:58:53;;;;;;;25.33;19.50;;;6.90;99.90;;;;;;5114585;28;20224;-55
2022/01/24 13:01:29;;;;;;;25.30;19.33;;;6.90;99.90;;;;;;5115262;28;20532;-56
2022/01/24 13:03:59;;;;;;;26.95;19.30;;;7.00;99.90;;;;;;5114149;28;20172;-55
2022/01/24 13:06:28;;;;;;;27.33;20.50;;;6.90;99.90;;;;;;5114025;28;20212;-57
2022/01/24 13:09:11;;;;;;;29.80;22.63;;;6.90;99.90;;;;;;5114007;28;20181;-55
2022/01/24 13:11:52;;;;;;;29.10;21.63;;;6.80;99.90;;;;;;5114095;28;20287;-54
2022/01/24 13:14:24;;;;;;;29.13;21.85;;;6.70;99.90;;;;;;5112790;28;20234;-56
2022/01/24 13:25:13;;;;;;;28.83;21.92;;;6.60;99.90;;;;;;5114012;28;20202;-55
2022/01/24 13:27:43;;;;;;;30.98;23.50;;;6.70;99.90;;;;;;5113682;28;20190;-55
2022/01/24 13:30:13;;;;;;;28.92;22.25;;;6.60;99.90;;;;;;5113691;28;20180;-55
2022/01/24 13:32:42;;;;;;;33.38;22.50;;;6.70;99.90;;;;;;5113860;28;20518;-55
2022/01/24 13:35:26;;;;;;;28.77;22.95;;;6.70;99.90;;;;;;5113839;28;20179;-55
2022/01/24 13:37:56;;;;;;;29.25;22.42;;;6.60;99.90;;;;;;5113798;28;20184;-56
2022/01/24 13:40:37;;;;;;;30.10;22.00;;;6.70;99.90;;;;;;5116876;28;20172;-55
2022/01/24 13:43:04;;;;;;;32.42;22.27;;;6.60;99.90;;;;;;5117958;28;20161;-55
2022/01/24 13:45:38;;;;;;;31.23;23.13;;;6.60;99.90;;;;;;5117898;28;20229;-55
2022/01/24 13:48:06;;;;;;;36.47;23.90;;;6.60;99.90;;;;;;5117971;28;20514;-55
2022/01/24 13:50:32;;;;;;;33.40;23.90;;;6.70;99.90;;;;;;5116582;28;20178;-55
2022/01/24 13:52:58;;;;;;;31.27;23.60;;;6.60;99.90;;;;;;5116529;28;20222;-56
2022/01/24 13:55:24;;;;;;;32.20;23.95;;;6.60;99.90;;;;;;5116901;28;20176;-57
2022/01/24 13:57:52;;;;;;;31.90;22.58;;;6.60;99.90;;;;;;5116447;28;20212;-55
2022/01/24 14:00:27;;;;;;;33.38;24.05;;;6.70;99.90;;;;;;5117290;28;20656;-55
2022/01/24 14:03:07;;;;;;;31.17;23.73;;;6.70;99.90;;;;;;5117646;28;20650;-55
2022/01/24 14:05:33;;;;;;;32.65;24.52;;;6.90;99.90;;;;;;5117474;28;20199;-56
2022/01/24 14:08:15;;;;;;;32.92;23.48;;;6.80;99.90;;;;;;5117774;28;20212;-56
2022/01/24 14:10:42;;;;;;;30.67;23.35;;;6.70;99.90;;;;;;5117400;28;20157;-56
2022/01/24 14:13:08;;;;;;;32.67;24.48;;;6.70;99.90;;;;;;5117379;28;20179;-55
2022/01/24 14:15:54;;;;;;;32.10;23.52;;;6.60;99.90;;;;;;5116063;28;20177;-55
2022/01/24 14:18:29;;;;;;;30.77;24.08;;;6.70;99.90;;;;;;5117267;28;20201;-55
2022/01/24 14:21:13;;;;;;;34.78;24.83;;;6.70;99.90;;;;;;5117018;28;20533;-56
2022/01/24 14:23:39;;;;;;;32.28;25.15;;;6.50;99.90;;;;;;5117161;28;20169;-55
2022/01/24 14:26:22;;;;;;;34.42;26.15;;;6.40;99.90;;;;;;5115942;28;20519;-56
2022/01/24 14:29:06;;;;;;;34.75;25.58;;;6.40;99.90;;;;;;5117137;28;20173;-55
2022/01/24 14:31:33;;;;;;;34.20;24.65;;;6.40;99.90;;;;;;5117123;28;20564;-56
2022/01/24 14:34:01;;;;;;;31.15;23.88;;;6.30;99.90;;;;;;5115720;28;20196;-55
2022/01/24 14:36:27;;;;;;;30.60;24.33;;;6.30;99.90;;;;;;5116957;28;20173;-55
2022/01/24 14:39:08;;;;;;;33.20;25.55;;;6.30;99.90;;;;;;5115531;28;20478;-56
2022/01/24 14:41:39;;;;;;;33.78;25.27;;;6.30;99.90;;;;;;5116839;28;20187;-56